createdAt,value
2022-12-25T00:01:19.153Z,-11.40
2022-12-25T00:03:46.571Z,-11.40
2022-12-25T00:06:13.426Z,-11.40
2022-12-25T00:08:40.718Z,-11.50
2022-12-25T00:11:09.130Z,-11.50
2022-12-25T00:13:35.992Z,-11.50
2022-12-25T00:16:12.805Z,-11.50
2022-12-25T00:18:39.637Z,-11.50
2022-12-25T00:21:07.902Z,-11.50
2022-12-25T00:23:35.782Z,-11.50
2022-12-25T00:26:07.962Z,-11.40
2022-12-25T00:28:36.128Z,-11.40
2022-12-25T00:31:17.339Z,-11.40
2022-12-25T00:33:46.877Z,-11.40
2022-12-25T00:36:15.483Z,-11.40
2022-12-25T00:38:42.838Z,-11.40
2022-12-25T00:41:15.796Z,-11.40
2022-12-25T00:43:42.977Z,-11.40
2022-12-25T00:46:11.544Z,-11.50
2022-12-25T00:48:38.769Z,-11.50
2022-12-25T00:51:08.918Z,-11.50
2022-12-25T00:53:35.716Z,-11.50
2022-12-25T00:56:07.460Z,-11.40
2022-12-25T00:58:35.369Z,-11.30
2022-12-25T01:01:03.056Z,-11.30
2022-12-25T01:03:30.238Z,-11.30
2022-12-25T01:05:59.556Z,-11.30
2022-12-25T01:08:29.285Z,-11.30
2022-12-25T01:10:58.791Z,-11.20
2022-12-25T01:13:26.210Z,-11.20
2022-12-25T01:15:54.298Z,-11.20
2022-12-25T01:18:22.666Z,-11.20
2022-12-25T01:20:49.649Z,-11.20
2022-12-25T01:23:17.121Z,-11.20
2022-12-25T01:25:43.994Z,-11.30
2022-12-25T01:28:10.742Z,-11.30
2022-12-25T01:30:37.602Z,-11.30
2022-12-25T01:33:04.474Z,-11.30
2022-12-25T01:35:31.354Z,-11.30
2022-12-25T01:37:58.273Z,-11.30
2022-12-25T01:40:25.121Z,-11.20
2022-12-25T01:42:52.057Z,-11.20
2022-12-25T01:45:34.479Z,-11.10
2022-12-25T01:48:06.176Z,-11.10
2022-12-25T01:50:35.291Z,-11.20
2022-12-25T01:53:02.723Z,-11.20
2022-12-25T01:55:30.001Z,-11.20
2022-12-25T01:57:57.151Z,-11.20
2022-12-25T02:00:23.986Z,-11.20
2022-12-25T02:02:50.885Z,-11.20
2022-12-25T02:05:32.739Z,-11.20
2022-12-25T02:08:04.194Z,-11.20
2022-12-25T02:10:31.158Z,-11.10
2022-12-25T02:12:58.341Z,-11.00
2022-12-25T02:15:31.994Z,-11.00
2022-12-25T02:18:05.490Z,-11.00
2022-12-25T02:20:32.296Z,-11.00
2022-12-25T02:23:26.624Z,-11.00
2022-12-25T02:26:19.403Z,-11.00
2022-12-25T02:29:09.833Z,-10.90
2022-12-25T02:32:02.439Z,-10.90
2022-12-25T02:35:01.019Z,-10.90
2022-12-25T02:37:36.702Z,-10.90
2022-12-25T02:40:15.176Z,-10.90
2022-12-25T02:43:14.164Z,-10.90
2022-12-25T02:46:14.657Z,-10.80
2022-12-25T02:49:13.444Z,-10.80
2022-12-25T02:52:03.349Z,-10.80
2022-12-25T02:54:56.148Z,-10.80
2022-12-25T02:57:46.539Z,-10.80
2022-12-25T03:00:33.002Z,-10.80
2022-12-25T03:03:20.834Z,-10.80
2022-12-25T03:06:06.734Z,-10.80
2022-12-25T03:08:41.329Z,-10.70
2022-12-25T03:11:29.332Z,-10.70
2022-12-25T03:14:20.485Z,-10.80
2022-12-25T03:16:50.552Z,-10.90
2022-12-25T03:19:37.901Z,-10.90
2022-12-25T03:22:25.650Z,-11.00
2022-12-25T03:25:11.322Z,-10.90
2022-12-25T03:27:41.709Z,-10.90
2022-12-25T03:30:28.094Z,-10.90
2022-12-25T03:33:37.178Z,-10.90
2022-12-25T03:36:21.897Z,-10.80
2022-12-25T03:39:26.532Z,-10.90
2022-12-25T03:42:19.086Z,-10.90
2022-12-25T03:45:30.072Z,-11.00
2022-12-25T03:48:13.118Z,-11.00
2022-12-25T03:51:10.191Z,-11.00
2022-12-25T03:54:16.415Z,-10.90
2022-12-25T03:57:10.512Z,-11.00
2022-12-25T03:59:56.351Z,-11.00
2022-12-25T04:02:41.717Z,-10.90
2022-12-25T04:05:27.765Z,-10.80
2022-12-25T04:08:13.125Z,-10.80
2022-12-25T04:10:58.541Z,-10.80
2022-12-25T04:13:43.957Z,-10.70
2022-12-25T04:16:29.293Z,-10.60
2022-12-25T04:19:14.613Z,-10.50
2022-12-25T04:21:59.980Z,-10.40
2022-12-25T04:24:45.412Z,-10.30
2022-12-25T04:27:30.936Z,-10.30
2022-12-25T04:30:16.307Z,-10.40
2022-12-25T04:33:01.732Z,-10.40
2022-12-25T04:35:47.101Z,-10.40
2022-12-25T04:38:13.964Z,-10.50
2022-12-25T04:40:40.717Z,-10.50
2022-12-25T04:43:07.511Z,-10.50
2022-12-25T04:45:34.392Z,-10.50
2022-12-25T04:48:01.203Z,-10.60
2022-12-25T04:50:28.001Z,-10.60
2022-12-25T04:52:55.033Z,-10.70
2022-12-25T04:55:21.967Z,-10.70
2022-12-25T04:57:48.832Z,-10.70
2022-12-25T05:00:16.106Z,-10.60
2022-12-25T05:02:43.123Z,-10.70
2022-12-25T05:05:10.010Z,-10.70
2022-12-25T05:07:37.256Z,-10.70
2022-12-25T05:10:04.288Z,-10.60
2022-12-25T05:12:31.063Z,-10.60
2022-12-25T05:14:58.097Z,-10.60
2022-12-25T05:17:24.978Z,-10.50
2022-12-25T05:19:51.741Z,-10.50
2022-12-25T05:22:18.589Z,-10.50
2022-12-25T05:24:45.356Z,-10.50
2022-12-25T05:27:12.191Z,-10.40
2022-12-25T05:29:39.034Z,-10.40
2022-12-25T05:32:06.145Z,-10.40
2022-12-25T05:34:33.148Z,-10.40
2022-12-25T05:36:59.976Z,-10.30
2022-12-25T05:39:26.789Z,-10.30
2022-12-25T05:41:53.597Z,-10.30
2022-12-25T05:44:20.482Z,-10.30
2022-12-25T05:46:47.284Z,-10.30
2022-12-25T05:49:14.204Z,-10.30
2022-12-25T05:51:41.002Z,-10.30
2022-12-25T05:54:07.927Z,-10.30
2022-12-25T05:56:34.882Z,-10.40
2022-12-25T05:59:01.935Z,-10.50
2022-12-25T06:01:29.377Z,-10.50
2022-12-25T06:03:56.711Z,-10.50
2022-12-25T06:06:23.658Z,-10.50
2022-12-25T06:08:50.473Z,-10.50
2022-12-25T06:11:17.704Z,-10.40
2022-12-25T06:13:44.722Z,-10.40
2022-12-25T06:16:12.898Z,-10.30
2022-12-25T06:18:42.205Z,-10.30
2022-12-25T06:21:10.924Z,-10.20
2022-12-25T06:23:39.087Z,-10.20
2022-12-25T06:26:08.585Z,-10.20
2022-12-25T06:28:35.567Z,-10.30
2022-12-25T06:31:17.901Z,-10.20
2022-12-25T06:33:45.194Z,-10.20
2022-12-25T06:36:15.718Z,-10.20
2022-12-25T06:38:42.987Z,-10.10
2022-12-25T06:41:16.257Z,-10.10
2022-12-25T06:43:43.428Z,-10.00
2022-12-25T06:46:12.478Z,-9.90
2022-12-25T06:48:41.359Z,-9.90
2022-12-25T06:51:08.423Z,-9.90
2022-12-25T06:53:40.607Z,-9.80
2022-12-25T06:56:10.475Z,-9.80
2022-12-25T06:58:37.277Z,-9.80
2022-12-25T07:01:15.743Z,-9.80
2022-12-25T07:03:45.475Z,-9.90
2022-12-25T07:06:12.659Z,-10.00
2022-12-25T07:08:39.693Z,-10.10
2022-12-25T07:11:06.802Z,-10.10
2022-12-25T07:13:33.643Z,-10.20
2022-12-25T07:16:03.097Z,-10.20
2022-12-25T07:18:31.414Z,-10.20
2022-12-25T07:21:01.288Z,-10.20
2022-12-25T07:23:28.071Z,-10.20
2022-12-25T07:25:59.398Z,-10.20
2022-12-25T07:28:26.971Z,-10.20
2022-12-25T07:30:53.811Z,-10.20
2022-12-25T07:33:20.981Z,-10.20
2022-12-25T07:35:47.885Z,-10.20
2022-12-25T07:38:14.674Z,-10.20
2022-12-25T07:40:44.609Z,-10.20
2022-12-25T07:43:11.436Z,-10.20
2022-12-25T07:45:38.596Z,-10.20
2022-12-25T07:48:08.362Z,-10.20
2022-12-25T07:50:37.591Z,-10.20
2022-12-25T07:53:04.504Z,-10.20
2022-12-25T07:55:31.286Z,-10.20
2022-12-25T07:57:58.287Z,-10.20
2022-12-25T08:00:29.798Z,-10.20
2022-12-25T08:02:56.945Z,-10.20
2022-12-25T08:05:23.928Z,-10.10
2022-12-25T08:07:57.695Z,-10.10
2022-12-25T08:10:25.319Z,-10.00
2022-12-25T08:12:55.354Z,-10.00
2022-12-25T08:15:22.120Z,-9.90
2022-12-25T08:17:48.934Z,-9.90
2022-12-25T08:20:15.995Z,-9.90
2022-12-25T08:22:42.827Z,-9.90
2022-12-25T08:25:09.763Z,-9.90
2022-12-25T08:27:36.582Z,-9.90
2022-12-25T08:30:04.137Z,-9.80
2022-12-25T08:32:33.686Z,-9.70
2022-12-25T08:35:00.485Z,-9.70
2022-12-25T08:37:30.125Z,-9.70
2022-12-25T08:39:56.905Z,-9.70
2022-12-25T08:42:23.927Z,-9.70
2022-12-25T08:44:50.682Z,-9.70
2022-12-25T08:47:17.767Z,-9.50
2022-12-25T08:49:44.620Z,-9.50
2022-12-25T08:52:11.696Z,-9.40
2022-12-25T08:54:38.567Z,-9.40
2022-12-25T08:57:05.481Z,-9.40
2022-12-25T08:59:32.354Z,-9.40
2022-12-25T09:01:59.279Z,-9.40
2022-12-25T09:04:26.261Z,-9.40
2022-12-25T09:06:53.034Z,-9.40
2022-12-25T09:09:19.858Z,-9.40
2022-12-25T09:11:46.909Z,-9.50
2022-12-25T09:14:14.314Z,-9.50
2022-12-25T09:16:41.191Z,-9.50
2022-12-25T09:19:08.058Z,-9.50
2022-12-25T09:21:36.711Z,-9.50
2022-12-25T09:24:04.785Z,-9.40
2022-12-25T09:26:31.622Z,-9.40
2022-12-25T09:28:58.472Z,-9.40
2022-12-25T09:31:25.483Z,-9.40
2022-12-25T09:33:56.828Z,-9.30
2022-12-25T09:36:24.892Z,-9.20
2022-12-25T09:38:52.659Z,-9.20
2022-12-25T09:41:50.638Z,-9.20
2022-12-25T09:44:23.026Z,-9.30
2022-12-25T09:47:05.053Z,-9.30
2022-12-25T09:49:50.282Z,-9.30
2022-12-25T09:52:25.818Z,-9.20
2022-12-25T09:54:55.520Z,-9.30
2022-12-25T09:57:24.248Z,-9.20
2022-12-25T09:59:56.017Z,-9.10
2022-12-25T10:02:50.213Z,-9.10
2022-12-25T10:05:35.766Z,-9.10
2022-12-25T10:08:17.644Z,-9.10
2022-12-25T10:10:56.341Z,-9.10
2022-12-25T10:13:35.176Z,-9.10
2022-12-25T10:16:25.480Z,-9.00
2022-12-25T10:19:08.302Z,-9.00
2022-12-25T10:21:35.731Z,-8.90
2022-12-25T10:24:19.903Z,-8.90
2022-12-25T10:26:48.654Z,-8.90
2022-12-25T10:29:17.107Z,-8.80
2022-12-25T10:31:49.981Z,-8.80
2022-12-25T10:34:17.487Z,-8.70
2022-12-25T10:36:45.876Z,-8.70
2022-12-25T10:39:24.105Z,-8.60
2022-12-25T10:42:00.530Z,-8.50
2022-12-25T10:44:27.442Z,-8.40
2022-12-25T10:46:56.722Z,-8.40
2022-12-25T10:49:26.365Z,-8.40
2022-12-25T10:51:53.256Z,-8.40
2022-12-25T10:54:22.863Z,-8.40
2022-12-25T10:57:13.171Z,-8.40
2022-12-25T10:59:49.027Z,-8.30
2022-12-25T11:02:29.454Z,-8.30
2022-12-25T11:05:13.614Z,-8.30
2022-12-25T11:07:54.291Z,-8.30
2022-12-25T11:10:30.657Z,-8.40
2022-12-25T11:12:59.739Z,-8.40
2022-12-25T11:15:40.496Z,-8.40
2022-12-25T11:18:23.049Z,-8.50
2022-12-25T11:21:14.282Z,-8.50
2022-12-25T11:23:46.837Z,-8.60
2022-12-25T11:26:14.317Z,-8.60
2022-12-25T11:28:42.358Z,-8.50
2022-12-25T11:31:13.175Z,-8.60
2022-12-25T11:33:54.829Z,-8.60
2022-12-25T11:36:43.373Z,-8.50
2022-12-25T11:39:31.658Z,-8.60
2022-12-25T11:42:16.036Z,-8.50
2022-12-25T11:44:51.065Z,-8.40
2022-12-25T11:47:32.266Z,-8.30
2022-12-25T11:50:35.618Z,-8.30
2022-12-25T11:53:05.942Z,-8.30
2022-12-25T11:55:39.648Z,-8.30
2022-12-25T11:58:15.937Z,-8.30
2022-12-25T12:00:46.057Z,-8.20
2022-12-25T12:03:20.973Z,-8.20
2022-12-25T12:05:59.673Z,-8.20
2022-12-25T12:08:26.527Z,-8.20
2022-12-25T12:11:33.416Z,-8.20
2022-12-25T12:14:06.131Z,-8.20
2022-12-25T12:16:34.549Z,-8.10
2022-12-25T12:19:13.008Z,-8.10
2022-12-25T12:21:44.160Z,-8.10
2022-12-25T12:24:17.182Z,-8.20
2022-12-25T12:26:46.347Z,-8.10
2022-12-25T12:29:29.184Z,-8.10
2022-12-25T12:32:01.314Z,-8.00
2022-12-25T12:34:51.206Z,-8.00
2022-12-25T12:37:30.725Z,-8.00
2022-12-25T12:39:58.715Z,-8.00
2022-12-25T12:42:28.970Z,-7.90
2022-12-25T12:45:06.343Z,-7.90
2022-12-25T12:47:43.391Z,-7.90
2022-12-25T12:50:33.876Z,-7.90
2022-12-25T12:53:15.606Z,-7.90
2022-12-25T12:55:42.592Z,-7.90
2022-12-25T12:58:27.635Z,-7.90
2022-12-25T13:01:35.977Z,-7.80
2022-12-25T13:04:21.390Z,-7.80
2022-12-25T13:07:12.798Z,-7.80
2022-12-25T13:10:02.881Z,-7.70
2022-12-25T13:12:30.077Z,-7.70
2022-12-25T13:14:57.096Z,-7.70
2022-12-25T13:17:27.292Z,-7.70
2022-12-25T13:19:57.618Z,-7.60
2022-12-25T13:22:36.046Z,-7.60
2022-12-25T13:25:07.775Z,-7.60
2022-12-25T13:27:34.852Z,-7.70
2022-12-25T13:30:18.738Z,-7.70
2022-12-25T13:32:46.166Z,-7.70
2022-12-25T13:35:15.582Z,-7.70
2022-12-25T13:37:43.701Z,-7.60
2022-12-25T13:40:27.935Z,-7.60
2022-12-25T13:43:01.286Z,-7.60
2022-12-25T13:45:30.713Z,-7.70
2022-12-25T13:48:08.919Z,-7.60
2022-12-25T13:50:37.170Z,-7.60
2022-12-25T13:53:12.713Z,-7.70
2022-12-25T13:55:41.528Z,-7.70
2022-12-25T13:58:22.037Z,-7.60
2022-12-25T14:00:52.763Z,-7.70
2022-12-25T14:03:24.034Z,-7.70
2022-12-25T14:06:02.555Z,-7.60
2022-12-25T14:08:32.275Z,-7.60
2022-12-25T14:11:03.687Z,-7.50
2022-12-25T14:13:33.102Z,-7.60
2022-12-25T14:16:00.621Z,-7.60
2022-12-25T14:18:28.496Z,-7.60
2022-12-25T14:20:59.862Z,-7.60
2022-12-25T14:23:28.306Z,-7.60
2022-12-25T14:25:55.189Z,-7.70
2022-12-25T14:28:25.413Z,-7.70
2022-12-25T14:30:53.444Z,-7.70
2022-12-25T14:33:25.146Z,-7.70
2022-12-25T14:35:53.023Z,-7.80
2022-12-25T14:38:24.590Z,-7.80
2022-12-25T14:41:07.529Z,-7.80
2022-12-25T14:43:36.715Z,-7.80
2022-12-25T14:46:08.065Z,-7.70
2022-12-25T14:48:35.033Z,-7.70
2022-12-25T14:51:09.081Z,-7.70
2022-12-25T14:53:41.194Z,-7.60
2022-12-25T14:56:11.181Z,-7.70
2022-12-25T14:58:43.154Z,-7.70
2022-12-25T15:01:22.014Z,-7.70
2022-12-25T15:03:49.336Z,-7.70
2022-12-25T15:06:22.520Z,-7.70
2022-12-25T15:09:06.340Z,-7.70
2022-12-25T15:11:33.479Z,-7.70
2022-12-25T15:14:00.765Z,-7.70
2022-12-25T15:16:32.621Z,-7.80
2022-12-25T15:19:00.942Z,-7.70
2022-12-25T15:21:30.689Z,-7.70
2022-12-25T15:23:59.056Z,-7.70
2022-12-25T15:26:28.304Z,-7.60
2022-12-25T15:28:55.189Z,-7.60
2022-12-25T15:31:32.205Z,-7.60
2022-12-25T15:34:02.370Z,-7.50
2022-12-25T15:36:29.297Z,-7.50
2022-12-25T15:38:56.581Z,-7.40
2022-12-25T15:41:55.048Z,-7.40
2022-12-25T15:44:22.863Z,-7.40
2022-12-25T15:46:49.968Z,-7.40
2022-12-25T15:49:17.645Z,-7.30
2022-12-25T15:51:45.399Z,-7.30
2022-12-25T15:54:12.163Z,-7.20
2022-12-25T15:56:43.404Z,-7.30
2022-12-25T15:59:12.094Z,-7.30
2022-12-25T16:01:41.481Z,-7.30
2022-12-25T16:04:08.428Z,-7.30
2022-12-25T16:06:35.285Z,-7.30
2022-12-25T16:09:02.131Z,-7.30
2022-12-25T16:11:28.896Z,-7.30
2022-12-25T16:13:55.749Z,-7.30
2022-12-25T16:16:23.203Z,-7.30
2022-12-25T16:18:50.063Z,-7.20
2022-12-25T16:21:19.830Z,-7.20
2022-12-25T16:23:46.907Z,-7.20
2022-12-25T16:26:13.699Z,-7.10
2022-12-25T16:28:40.873Z,-7.20
2022-12-25T16:31:07.914Z,-7.30
2022-12-25T16:33:34.796Z,-7.30
2022-12-25T16:36:01.563Z,-7.30
2022-12-25T16:38:28.342Z,-7.40
2022-12-25T16:40:57.942Z,-7.50
2022-12-25T16:43:25.212Z,-7.50
2022-12-25T16:45:52.444Z,-7.60
2022-12-25T16:48:19.474Z,-7.70
2022-12-25T16:50:46.325Z,-7.70
2022-12-25T16:53:13.201Z,-7.70
2022-12-25T16:55:40.068Z,-7.70
2022-12-25T16:58:07.114Z,-7.70
2022-12-25T17:00:34.171Z,-7.70
2022-12-25T17:03:01.776Z,-7.70
2022-12-25T17:05:28.686Z,-7.70
2022-12-25T17:07:55.756Z,-7.70
2022-12-25T17:10:22.662Z,-7.70
2022-12-25T17:12:49.554Z,-7.70
2022-12-25T17:15:16.505Z,-7.70
2022-12-25T17:17:43.343Z,-7.60
2022-12-25T17:20:10.568Z,-7.50
2022-12-25T17:22:37.523Z,-7.50
2022-12-25T17:25:04.827Z,-7.50
2022-12-25T17:27:31.571Z,-7.50
2022-12-25T17:29:58.314Z,-7.40
2022-12-25T17:32:25.183Z,-7.40
2022-12-25T17:34:52.129Z,-7.40
2022-12-25T17:37:18.865Z,-7.40
2022-12-25T17:39:46.806Z,-7.30
2022-12-25T17:42:13.509Z,-7.20
2022-12-25T17:44:40.332Z,-7.20
2022-12-25T17:47:07.255Z,-7.20
2022-12-25T17:49:34.157Z,-7.10
2022-12-25T17:52:00.948Z,-7.10
2022-12-25T17:54:27.943Z,-7.20
2022-12-25T17:56:54.843Z,-7.10
2022-12-25T17:59:28.315Z,-7.20
2022-12-25T18:01:55.718Z,-7.10
2022-12-25T18:04:22.647Z,-7.10
2022-12-25T18:06:49.656Z,-7.20
2022-12-25T18:09:16.618Z,-7.30
2022-12-25T18:11:43.917Z,-7.30
2022-12-25T18:14:13.942Z,-7.30
2022-12-25T18:16:43.400Z,-7.30
2022-12-25T18:19:12.296Z,-7.30
2022-12-25T18:21:39.198Z,-7.30
2022-12-25T18:24:07.348Z,-7.30
2022-12-25T18:26:34.258Z,-7.30
2022-12-25T18:29:01.050Z,-7.40
2022-12-25T18:31:30.386Z,-7.40
2022-12-25T18:33:58.461Z,-7.30
2022-12-25T18:36:27.157Z,-7.40
2022-12-25T18:38:55.934Z,-7.40
2022-12-25T18:41:23.329Z,-7.30
2022-12-25T18:43:52.456Z,-7.20
2022-12-25T18:46:24.055Z,-7.20
2022-12-25T18:48:51.751Z,-7.10
2022-12-25T18:51:18.682Z,-7.10
2022-12-25T18:53:45.677Z,-7.00
2022-12-25T18:56:17.566Z,-6.90
2022-12-25T18:58:45.702Z,-6.90
2022-12-25T19:01:18.677Z,-6.90
2022-12-25T19:03:46.607Z,-6.80
2022-12-25T19:06:20.302Z,-6.80
2022-12-25T19:08:47.421Z,-6.80
2022-12-25T19:11:14.411Z,-6.80
2022-12-25T19:13:42.251Z,-6.80
2022-12-25T19:16:10.052Z,-6.80
2022-12-25T19:18:37.538Z,-6.80
2022-12-25T19:21:06.384Z,-6.80
2022-12-25T19:23:33.876Z,-6.80
2022-12-25T19:26:00.919Z,-6.90
2022-12-25T19:28:27.697Z,-6.80
2022-12-25T19:30:54.744Z,-6.90
2022-12-25T19:33:22.846Z,-6.90
2022-12-25T19:35:50.294Z,-6.80
2022-12-25T19:38:17.384Z,-6.80
2022-12-25T19:41:00.379Z,-6.90
2022-12-25T19:43:34.054Z,-6.90
2022-12-25T19:46:01.990Z,-6.90
2022-12-25T19:48:30.172Z,-6.90
2022-12-25T19:50:57.251Z,-6.90
2022-12-25T19:53:25.738Z,-6.80
2022-12-25T19:55:53.722Z,-6.80
2022-12-25T19:58:21.905Z,-6.80
2022-12-25T20:00:59.672Z,-6.80
2022-12-25T20:03:26.773Z,-6.80
2022-12-25T20:05:53.771Z,-6.80
2022-12-25T20:08:20.598Z,-6.70
2022-12-25T20:10:47.465Z,-6.70
2022-12-25T20:13:14.414Z,-6.70
2022-12-25T20:15:41.344Z,-6.70
2022-12-25T20:18:08.171Z,-6.70
2022-12-25T20:20:35.036Z,-6.70
2022-12-25T20:23:01.985Z,-6.80
2022-12-25T20:25:28.911Z,-6.70
2022-12-25T20:27:55.701Z,-6.70
2022-12-25T20:30:22.523Z,-6.70
2022-12-25T20:32:50.777Z,-6.70
2022-12-25T20:35:17.850Z,-6.70
2022-12-25T20:37:44.703Z,-6.60
2022-12-25T20:40:12.458Z,-6.60
2022-12-25T20:42:39.256Z,-6.60
2022-12-25T20:45:07.759Z,-6.60
2022-12-25T20:47:35.145Z,-6.50
2022-12-25T20:50:02.255Z,-6.50
2022-12-25T20:52:29.083Z,-6.40
2022-12-25T20:54:55.995Z,-6.40
2022-12-25T20:57:22.869Z,-6.40
2022-12-25T20:59:49.700Z,-6.30
2022-12-25T21:02:34.532Z,-6.40
2022-12-25T21:05:04.479Z,-6.40
2022-12-25T21:07:31.261Z,-6.50
2022-12-25T21:09:59.228Z,-6.50
2022-12-25T21:12:26.228Z,-6.50
2022-12-25T21:14:52.987Z,-6.60
2022-12-25T21:17:19.946Z,-6.60
2022-12-25T21:19:46.989Z,-6.60
2022-12-25T21:22:14.839Z,-6.60
2022-12-25T21:24:41.710Z,-6.60
2022-12-25T21:27:08.896Z,-6.60
2022-12-25T21:29:35.745Z,-6.60
2022-12-25T21:32:20.992Z,-6.60
2022-12-25T21:34:47.789Z,-6.60
2022-12-25T21:37:14.595Z,-6.60
2022-12-25T21:39:41.541Z,-6.60
2022-12-25T21:42:08.383Z,-6.60
2022-12-25T21:44:35.308Z,-6.50
2022-12-25T21:47:02.221Z,-6.40
2022-12-25T21:49:47.503Z,-6.30
2022-12-25T21:52:14.403Z,-6.30
2022-12-25T21:54:41.172Z,-6.40
2022-12-25T21:57:08.097Z,-6.40
2022-12-25T21:59:35.085Z,-6.40
2022-12-25T22:02:02.031Z,-6.30
2022-12-25T22:04:28.966Z,-6.30
2022-12-25T22:07:18.993Z,-6.30
2022-12-25T22:09:47.619Z,-6.20
2022-12-25T22:12:34.619Z,-6.20
2022-12-25T22:15:06.164Z,-6.20
2022-12-25T22:17:55.077Z,-6.20
2022-12-25T22:20:25.244Z,-6.30
2022-12-25T22:22:52.844Z,-6.30
2022-12-25T22:25:20.560Z,-6.30
2022-12-25T22:27:48.446Z,-6.30
2022-12-25T22:30:22.404Z,-6.30
2022-12-25T22:32:49.558Z,-6.30
2022-12-25T22:35:16.890Z,-6.30
2022-12-25T22:37:44.261Z,-6.30
2022-12-25T22:40:14.492Z,-6.30
2022-12-25T22:42:41.942Z,-6.20
2022-12-25T22:45:09.795Z,-6.20
2022-12-25T22:47:36.829Z,-6.20
2022-12-25T22:50:04.439Z,-6.20
2022-12-25T22:52:31.279Z,-6.10
2022-12-25T22:54:58.290Z,-6.10
2022-12-25T22:57:25.502Z,-6.10
2022-12-25T22:59:53.009Z,-6.10
2022-12-25T23:02:20.398Z,-6.10
2022-12-25T23:04:47.943Z,-6.10
2022-12-25T23:07:15.658Z,-6.10
2022-12-25T23:09:43.368Z,-6.20
2022-12-25T23:12:30.102Z,-6.10
2022-12-25T23:14:57.640Z,-6.10
2022-12-25T23:17:43.004Z,-6.20
2022-12-25T23:20:28.985Z,-6.20
2022-12-25T23:23:14.370Z,-6.10
2022-12-25T23:26:00.394Z,-6.10
2022-12-25T23:28:45.873Z,-6.10
2022-12-25T23:31:12.932Z,-6.10
2022-12-25T23:33:39.890Z,-6.00
2022-12-25T23:36:06.941Z,-6.00
2022-12-25T23:38:33.849Z,-5.90
2022-12-25T23:41:00.619Z,-5.90
2022-12-25T23:43:27.387Z,-5.90
2022-12-25T23:45:54.229Z,-5.90
2022-12-25T23:48:20.962Z,-5.80
2022-12-25T23:50:47.823Z,-5.70
2022-12-25T23:53:14.667Z,-5.70
2022-12-25T23:55:42.639Z,-5.70
2022-12-25T23:58:09.683Z,-5.60
